Stations météo

réclame
Mon MeteoGroup
Ernage, Belgique (6459): Température de l'air & dewpoint: 19.02.2018 22:00:00 - 25.02.2018 22:00:00 (CET)Ernage, Belgique (6459): Vitesse du vent & gusts: 19.02.2018 22:00:00 - 25.02.2018 22:00:00 (CET)Ernage, Belgique (6459): Direction du vent: 19.02.2018 22:00:00 - 25.02.2018 22:00:00 (CET)Ernage, Belgique (6459): reduced air pressure: 19.02.2018 22:00:00 - 25.02.2018 22:00:00 (CET)Ernage, Belgique (6459): Ensoleillement: 19.02.2018 22:00:00 - 25.02.2018 22:00:00 (CET)Ernage, Belgique (6459): Quantités de précipitations: 19.02.2018 22:00:00 - 25.02.2018 22:00:00 (CET)
Date & Time tt [°C] td [°C] ff [km/h] ff [knt] fx [km/h] fx [knt] dd ppp [hPa] sd [min] rr [mm]
25.02.2018 22:00:00 - - - - - - - - - -
25.02.2018 21:00:00 -3,2 -11,7 20 11 29 16 NNE 1027,8 0 0,0
25.02.2018 20:00:00 -2,7 -12,4 21 12 32 18 NNE 1027,6 0 0,0
25.02.2018 19:00:00 -2,2 -12,5 18 10 33 18 NNE 1027,7 16 0,0
25.02.2018 18:00:00 -1,2 -12,5 21 11 34 18 NE 1027,2 60 0,0
25.02.2018 17:00:00 -0,6 -12,4 22 12 39 21 NE 1027,0 60 0,0
25.02.2018 16:00:00 -0,4 -12,5 25 13 39 21 NE 1027,0 60 0,0
25.02.2018 15:00:00 -0,3 -12,6 27 15 38 20 NE 1027,2 60 0,0
25.02.2018 14:00:00 -0,7 -13,1 29 16 39 21 ENE 1027,5 60 0,0
25.02.2018 13:00:00 -0,8 -11,9 25 14 40 22 NE 1028,1 60 0,0
25.02.2018 12:00:00 -1,8 -12,3 28 15 39 21 NE 1028,3 60 0,1
25.02.2018 11:00:00 -2,7 -12,5 29 15 40 22 ENE 1028,3 60 0,1
25.02.2018 10:00:00 -3,8 -11,6 29 16 39 21 NE 1028,4 60 0,1
25.02.2018 09:00:00 -4,7 -11,3 29 16 40 22 ENE 1027,6 60 0,1
25.02.2018 08:00:00 -5,3 -11,0 24 13 37 20 NE 1027,5 7 0,0
25.02.2018 07:00:00 -5,0 -10,9 25 14 39 21 NE 1027,0 0 0,0
25.02.2018 06:00:00 -4,6 -10,6 26 14 40 21 NE 1026,5 0 0,0
25.02.2018 05:00:00 -4,2 -10,7 24 13 34 19 ENE 1026,1 0 0,0
25.02.2018 04:00:00 -3,8 -10,6 23 12 35 19 ENE 1025,7 0 0,1
25.02.2018 03:00:00 -3,3 -10,6 24 13 35 19 ENE 1025,7 0 0,0
25.02.2018 02:00:00 -2,9 -10,3 25 13 40 22 ENE 1025,4 0 0,0
25.02.2018 01:00:00 -2,4 -9,6 29 16 39 21 ENE 1025,4 0 0,0
25.02.2018 00:00:00 -2,0 -8,5 27 15 40 22 ENE 1025,1 0 0,0
24.02.2018 23:00:00 -1,6 -7,8 28 15 45 24 ENE 1024,8 0 0,1
24.02.2018 22:00:00 -1,2 -7,8 29 16 48 26 ENE 1024,3 0 0,0
24.02.2018 21:00:00 -0,7 -8,0 36 20 55 30 ENE 1023,9 0 0,1
24.02.2018 20:00:00 0,0 -7,1 34 18 46 25 NE 1023,5 0 0,1
24.02.2018 19:00:00 0,6 -5,5 29 16 40 22 NE 1022,7 12 0,0
24.02.2018 18:00:00 2,0 -6,1 24 13 36 19 NE 1022,3 60 0,0
24.02.2018 17:00:00 3,4 -7,1 31 17 50 27 ENE 1021,8 60 0,0
24.02.2018 16:00:00 3,5 -6,9 32 17 52 28 NE 1021,4 60 0,1
24.02.2018 15:00:00 3,5 -7,5 36 19 55 30 NE 1021,2 60 0,1
24.02.2018 14:00:00 2,6 -8,4 37 20 49 26 ENE 1021,4 60 0,1
24.02.2018 13:00:00 1,5 -8,8 29 16 44 24 ENE 1021,7 60 0,0
24.02.2018 12:00:00 0,3 -9,8 28 15 44 24 NE 1022,5 60 0,1
24.02.2018 11:00:00 -1,2 -10,5 31 17 45 24 NE 1022,1 60 0,0
24.02.2018 10:00:00 -2,8 -10,7 28 15 40 21 ENE 1022,2 60 0,1
24.02.2018 09:00:00 -3,9 -10,7 25 13 35 19 ENE 1022,3 60 0,1
24.02.2018 08:00:00 -4,8 -10,3 23 12 37 20 ENE 1021,8 0 0,0
24.02.2018 07:00:00 -4,7 -9,8 25 14 34 18 ENE 1021,3 0 0,0
24.02.2018 06:00:00 -4,3 -9,5 23 13 37 20 NE 1021,0 0 0,0
24.02.2018 05:00:00 -4,0 -9,4 24 13 32 18 NE 1020,9 0 0,0
24.02.2018 04:00:00 -3,7 -9,8 20 11 29 16 NE 1020,7 0 0,0
24.02.2018 03:00:00 -3,3 -9,1 18 10 26 14 NE 1020,5 0 0,0
24.02.2018 02:00:00 -3,0 -8,3 17 9 27 15 NE 1020,5 0 0,0
24.02.2018 01:00:00 -2,6 -7,9 18 10 27 15 NE 1020,1 0 0,0
24.02.2018 00:00:00 -2,3 -7,1 15 8 26 14 NE 1020,1 0 0,0
23.02.2018 23:00:00 -1,9 -6,7 18 10 26 14 NE 1019,9 0 0,0
23.02.2018 22:00:00 -1,5 -6,6 18 10 29 16 NE 1020,2 0 0,0
23.02.2018 21:00:00 -1,0 -6,8 21 11 31 17 NE 1020,0 0 0,0
23.02.2018 20:00:00 -0,5 -6,7 21 11 30 16 NE 1019,9 0 0,0
23.02.2018 19:00:00 0,1 -7,0 22 12 31 17 NE 1019,4 11 0,0
23.02.2018 18:00:00 0,6 -6,8 21 11 38 21 NE 1019,4 60 0,0
23.02.2018 17:00:00 1,0 -7,5 27 15 42 23 NE 1019,4 60 0,0
23.02.2018 16:00:00 1,1 -7,2 26 14 41 22 ENE 1019,5 60 0,0
23.02.2018 15:00:00 0,9 -6,7 29 16 41 22 ENE 1019,9 60 0,0
23.02.2018 14:00:00 0,6 -6,9 29 16 41 22 ENE 1020,5 60 0,0
23.02.2018 13:00:00 0,3 -7,1 32 18 45 24 ENE 1020,8 60 0,0
23.02.2018 12:00:00 -0,5 -6,2 28 15 43 23 ENE 1021,4 60 0,1
23.02.2018 11:00:00 -1,3 -5,3 27 15 38 20 NE 1021,5 60 0,1
23.02.2018 10:00:00 -2,3 -4,5 21 11 29 16 NE 1021,6 60 0,0
23.02.2018 09:00:00 -3,2 -4,7 18 10 26 14 NE 1021,9 55 0,0
23.02.2018 08:00:00 -3,8 -5,2 18 10 30 16 NE 1022,0 0 0,0
23.02.2018 07:00:00 -3,5 -5,5 22 12 30 16 NE 1021,4 0 0,0
23.02.2018 06:00:00 -3,2 -5,7 22 12 32 17 NE 1021,5 0 0,0
23.02.2018 05:00:00 -3,0 -6,3 21 12 30 16 NE 1021,5 0 0,0
23.02.2018 04:00:00 -2,8 -6,0 20 11 - - NE 1021,4 0 0,0
23.02.2018 03:00:00 -2,6 -5,5 16 9 24 13 NE 1021,6 0 0,0
23.02.2018 02:00:00 -2,3 -5,2 18 10 28 15 NE 1021,9 0 0,0
23.02.2018 01:00:00 -1,8 -4,8 18 10 29 16 NE 1022,0 0 0,0
23.02.2018 00:00:00 -1,4 -4,6 21 11 31 17 NE 1022,0 0 0,0
22.02.2018 23:00:00 -1,0 -4,4 20 11 30 16 NE 1022,3 0 0,0
22.02.2018 22:00:00 -0,5 -4,6 20 11 34 18 NE 1021,9 0 0,0
22.02.2018 21:00:00 0,1 -5,0 20 11 37 20 NE 1021,9 0 0,1
22.02.2018 20:00:00 0,5 -4,9 23 12 33 18 NNE 1021,8 0 0,0
22.02.2018 19:00:00 1,0 -5,3 18 10 34 18 NE 1021,3 4 0,0
22.02.2018 18:00:00 1,6 -5,3 20 11 32 18 NE 1021,1 60 0,0
22.02.2018 17:00:00 2,3 -4,7 22 12 42 23 NE 1021,2 59 0,0
22.02.2018 16:00:00 2,5 -4,5 24 13 42 23 NE 1021,3 52 0,0
22.02.2018 15:00:00 2,7 -4,6 31 17 46 25 ENE 1021,8 60 0,1
22.02.2018 14:00:00 2,3 -4,4 26 14 39 21 NE 1022,6 60 0,1
22.02.2018 13:00:00 1,8 -3,8 25 14 37 20 NE 1023,0 60 0,1
22.02.2018 12:00:00 0,8 -3,8 25 14 34 18 ENE 1023,2 60 0,0
22.02.2018 11:00:00 -0,4 -3,5 22 12 33 18 NE 1023,5 60 0,0
22.02.2018 10:00:00 -1,8 -3,8 20 11 30 16 NE 1023,6 60 0,0
22.02.2018 09:00:00 -2,9 -4,3 17 9 26 14 NE 1023,6 48 0,0
22.02.2018 08:00:00 -3,4 -4,5 18 10 26 14 NE 1023,4 0 0,0
22.02.2018 07:00:00 -3,4 -4,3 18 10 22 12 NE 1023,1 0 0,0
22.02.2018 06:00:00 -3,2 -4,1 15 8 22 12 NNE 1023,1 0 0,0
22.02.2018 05:00:00 -2,9 -3,9 18 10 23 13 NNE 1022,6 0 0,0
22.02.2018 04:00:00 -2,7 -3,9 16 9 23 12 NNE 1022,9 0 0,0
22.02.2018 03:00:00 -2,4 -4,0 16 9 27 15 NNE 1023,4 0 0,0
22.02.2018 02:00:00 -2,0 -3,9 17 9 26 14 NNE 1023,5 0 0,0
22.02.2018 01:00:00 -1,5 -4,0 18 10 26 14 NE 1023,8 0 0,0
22.02.2018 00:00:00 -1,2 -3,8 16 8 22 12 NNE 1024,1 0 0,0
21.02.2018 23:00:00 -0,8 -3,6 16 9 23 12 NNE 1024,4 0 0,0
21.02.2018 22:00:00 -0,3 -3,6 16 9 25 13 NNE 1024,5 0 0,0
21.02.2018 21:00:00 -0,5 -3,0 16 8 20 11 NNE 1024,5 0 0,0
21.02.2018 20:00:00 -0,3 -3,3 13 7 20 11 NNE 1024,2 0 0,0
21.02.2018 19:00:00 0,0 -2,9 14 8 22 12 NNE 1024,3 0 0,0
21.02.2018 18:00:00 1,8 -3,0 18 10 24 13 NNE 1024,1 51 0,0
21.02.2018 17:00:00 2,9 -2,9 17 9 29 16 N 1023,7 60 0,0
21.02.2018 16:00:00 3,2 -3,0 20 11 29 16 N 1023,9 60 0,0
21.02.2018 15:00:00 3,0 -2,5 21 12 30 16 NNE 1024,3 60 0,0
21.02.2018 14:00:00 - - - - - - - - - -
21.02.2018 13:00:00 1,7 -1,8 14 8 - - NNE 1025,8 - -
21.02.2018 12:00:00 0,6 -2,5 14 8 22 12 NE 1025,9 - -
21.02.2018 11:00:00 -0,3 -2,4 14 8 18 10 NE 1026,1 - -
21.02.2018 10:00:00 -1,4 -2,8 12 7 19 10 NNE 1025,9 60 0,0
21.02.2018 09:00:00 -2,4 -3,3 10 5 23 12 NE 1025,4 30 0,0
21.02.2018 08:00:00 -2,9 -3,5 16 9 22 12 NNE 1025,4 0 0,0
21.02.2018 07:00:00 -2,6 -3,5 14 8 21 11 NNE 1024,9 0 0,0
21.02.2018 06:00:00 -2,0 -3,4 16 8 23 13 NE 1024,5 0 0,0
21.02.2018 05:00:00 -1,8 -3,1 13 7 23 13 NNE 1024,3 0 0,0
21.02.2018 04:00:00 -1,6 -2,8 16 9 24 13 NNE 1024,3 0 0,0
21.02.2018 03:00:00 -1,3 -2,7 12 6 22 12 NNE 1023,9 0 0,0
21.02.2018 02:00:00 -0,9 -2,5 15 8 25 14 NNE 1023,8 0 0,0
21.02.2018 01:00:00 -0,3 -2,1 18 10 23 12 N 1023,8 0 0,0
21.02.2018 00:00:00 -0,1 -1,9 16 8 23 12 N 1023,0 0 0,0
20.02.2018 23:00:00 -0,3 -1,7 14 7 18 10 NNE 1022,4 0 0,0
20.02.2018 22:00:00 0,3 -1,5 13 7 19 10 NNE 1021,5 0 0,0
20.02.2018 21:00:00 0,6 -1,3 12 7 22 12 NNE 1021,1 0 0,0
20.02.2018 20:00:00 1,2 -1,1 12 7 17 9 NNE 1020,6 0 0,0
20.02.2018 19:00:00 2,3 -0,5 11 6 19 10 N 1020,0 0 0,0
20.02.2018 18:00:00 2,9 -0,9 15 8 20 11 N 1019,7 0 0,0
20.02.2018 17:00:00 3,6 -0,5 11 6 16 8 N 1018,8 0 0,0
20.02.2018 16:00:00 3,8 -1,4 11 6 18 10 N 1018,4 0 0,0
20.02.2018 15:00:00 3,9 -1,3 9 5 13 7 NNE 1018,8 0 0,0
20.02.2018 14:00:00 3,9 -1,6 8 4 15 8 NNE 1019,0 24 0,0
20.02.2018 13:00:00 4,2 -0,2 4 2 13 7 NNE 1019,1 40 0,0
20.02.2018 12:00:00 2,5 0,0 7 4 10 6 NE 1019,1 0 0,0
20.02.2018 11:00:00 1,4 0,2 7 4 10 5 N 1019,3 23 0,0
20.02.2018 10:00:00 0,1 0,1 5 3 9 5 N 1019,2 19 0,0
20.02.2018 09:00:00 -0,4 -0,4 6 4 8 4 NW 1019,2 0 0,0
20.02.2018 08:00:00 -0,5 -0,5 4 2 6 4 W 1018,6 0 0,0
20.02.2018 07:00:00 -0,7 -0,7 4 2 9 5 NNE 1018,6 0 0,0
20.02.2018 06:00:00 -0,5 -0,5 9 5 10 5 ENE 1018,2 0 0,0
20.02.2018 05:00:00 -0,5 -0,5 5 3 8 4 ENE 1018,2 0 0,0
20.02.2018 04:00:00 -0,6 -0,6 4 2 7 4 ENE 1018,4 0 0,0
20.02.2018 03:00:00 -0,7 -0,7 4 2 8 5 E 1018,0 0 0,0
20.02.2018 02:00:00 0,2 0,0 8 4 10 5 NE 1017,8 0 0,0
20.02.2018 01:00:00 0,9 0,6 4 2 6 3 S 1017,9 0 0,0
20.02.2018 00:00:00 1,1 0,7 4 2 7 4 ESE 1017,6 0 0,0
19.02.2018 23:00:00 1,4 0,9 5 3 8 4 SE 1017,8 0 0,0
19.02.2018 22:00:00 1,5 1,0 6 3 9 5 SSE 1017,9 0 0,0

tt = Température de l'air
td = dewpoint
ff = Vitesse du vent
fx = gusts
dd = Direction du vent
ppp = reduced air pressure
sd = Ensoleillement
rr = Quantités de précipitations

stations d'obs. à proximité